createdAt,value
2022-11-05T00:00:54.570Z,9.40
2022-11-05T00:02:14.731Z,9.40
2022-11-05T00:03:34.870Z,9.40
2022-11-05T00:04:55.078Z,9.40
2022-11-05T00:06:15.606Z,9.30
2022-11-05T00:07:39.222Z,9.40
2022-11-05T00:09:00.014Z,9.20
2022-11-05T00:10:23.330Z,9.30
2022-11-05T00:11:45.156Z,9.30
2022-11-05T00:13:05.383Z,9.30
2022-11-05T00:14:25.631Z,9.30
2022-11-05T00:15:45.830Z,9.30
2022-11-05T00:16:47.346Z,9.30
2022-11-05T00:17:48.756Z,9.30
2022-11-05T00:19:06.510Z,9.20
2022-11-05T00:20:10.215Z,9.20
2022-11-05T00:21:38.203Z,9.20
2022-11-05T00:22:58.618Z,9.20
2022-11-05T00:24:24.055Z,9.10
2022-11-05T00:25:26.375Z,9.20
2022-11-05T00:26:27.746Z,9.20
2022-11-05T00:27:29.187Z,9.20
2022-11-05T00:28:32.067Z,9.30
2022-11-05T00:29:33.557Z,9.30
2022-11-05T00:30:35.018Z,9.30
2022-11-05T00:31:36.663Z,9.30
2022-11-05T00:32:38.410Z,9.30
2022-11-05T00:33:41.650Z,9.20
2022-11-05T00:34:43.533Z,9.20
2022-11-05T00:35:45.170Z,9.20
2022-11-05T00:36:46.589Z,9.10
2022-11-05T00:37:50.409Z,9.20
2022-11-05T00:38:52.763Z,9.20
2022-11-05T00:39:54.340Z,9.10
2022-11-05T00:40:56.259Z,9.20
2022-11-05T00:42:16.457Z,9.10
2022-11-05T00:43:36.558Z,9.10
2022-11-05T00:44:56.922Z,9.20
2022-11-05T00:45:58.360Z,9.20
2022-11-05T00:47:19.893Z,9.20
2022-11-05T00:48:40.251Z,9.20
2022-11-05T00:49:41.632Z,9.20
2022-11-05T00:50:43.058Z,9.10
2022-11-05T00:51:44.904Z,9.10
2022-11-05T00:52:56.814Z,9.10
2022-11-05T00:53:58.230Z,9.10
2022-11-05T00:54:59.648Z,9.10
2022-11-05T00:56:01.974Z,9.10
2022-11-05T00:57:04.879Z,9.10
2022-11-05T00:58:12.316Z,9.10
2022-11-05T00:59:13.715Z,9.10
2022-11-05T01:00:15.559Z,9.10
2022-11-05T01:01:17.245Z,9.10
2022-11-05T01:02:18.930Z,9.00
2022-11-05T01:03:22.854Z,9.10
2022-11-05T01:04:24.684Z,9.10
2022-11-05T01:05:26.270Z,9.00
2022-11-05T01:06:27.654Z,9.00
2022-11-05T01:07:29.298Z,9.00
2022-11-05T01:08:30.723Z,9.00
2022-11-05T01:09:32.421Z,9.00
2022-11-05T01:10:33.854Z,9.00
2022-11-05T01:11:37.112Z,9.00
2022-11-05T01:12:39.029Z,9.10
2022-11-05T01:13:40.640Z,9.20
2022-11-05T01:14:42.159Z,9.10
2022-11-05T01:15:43.765Z,9.20
2022-11-05T01:16:45.501Z,9.20
2022-11-05T01:17:46.942Z,9.20
2022-11-05T01:18:48.512Z,9.20
2022-11-05T01:19:49.952Z,9.20
2022-11-05T01:20:51.561Z,9.20
2022-11-05T01:21:53.302Z,9.20
2022-11-05T01:22:54.736Z,9.20
2022-11-05T01:23:56.095Z,9.20
2022-11-05T01:24:57.482Z,9.20
2022-11-05T01:25:58.927Z,9.20
2022-11-05T01:27:00.385Z,9.10
2022-11-05T01:28:03.328Z,9.10
2022-11-05T01:29:04.785Z,9.10
2022-11-05T01:30:08.237Z,9.10
2022-11-05T01:31:09.668Z,9.20
2022-11-05T01:32:11.062Z,9.10
2022-11-05T01:33:12.836Z,9.10
2022-11-05T01:34:14.515Z,9.20
2022-11-05T01:35:17.410Z,9.10
2022-11-05T01:36:19.072Z,9.10
2022-11-05T01:37:20.479Z,9.10
2022-11-05T01:38:22.100Z,9.10
2022-11-05T01:39:23.516Z,9.10
2022-11-05T01:40:25.348Z,9.00
2022-11-05T01:41:26.999Z,9.10
2022-11-05T01:42:31.085Z,9.10
2022-11-05T01:43:57.434Z,9.10
2022-11-05T01:45:06.981Z,9.00
2022-11-05T01:46:08.501Z,9.00
2022-11-05T01:47:36.909Z,9.10
2022-11-05T01:48:38.670Z,9.10
2022-11-05T01:49:40.365Z,9.10
2022-11-05T01:50:47.624Z,9.00
2022-11-05T01:51:49.388Z,9.00
2022-11-05T01:52:56.226Z,9.10
2022-11-05T01:54:10.145Z,9.10
2022-11-05T01:55:13.890Z,9.10
2022-11-05T01:56:23.630Z,9.10
2022-11-05T01:57:25.881Z,9.10
2022-11-05T01:58:32.911Z,9.10
2022-11-05T01:59:39.251Z,9.10
2022-11-05T02:00:42.243Z,9.10
2022-11-05T02:01:45.071Z,9.10
2022-11-05T02:02:47.611Z,9.20
2022-11-05T02:03:52.671Z,9.20
2022-11-05T02:05:06.564Z,9.20
2022-11-05T02:06:09.471Z,9.20
2022-11-05T02:07:11.722Z,9.20
2022-11-05T02:08:21.387Z,9.20
2022-11-05T02:09:29.544Z,9.30
2022-11-05T02:10:31.951Z,9.30
2022-11-05T02:11:33.461Z,9.20
2022-11-05T02:12:38.531Z,9.20
2022-11-05T02:13:40.682Z,9.20
2022-11-05T02:14:42.075Z,9.20
2022-11-05T02:15:59.355Z,9.20
2022-11-05T02:17:39.782Z,9.30
2022-11-05T02:19:08.363Z,9.30
2022-11-05T02:20:17.559Z,9.30
2022-11-05T02:21:35.339Z,9.30
2022-11-05T02:22:55.216Z,9.20
2022-11-05T02:24:34.752Z,9.20
2022-11-05T02:26:13.830Z,9.20
2022-11-05T02:27:43.443Z,9.20
2022-11-05T02:29:21.401Z,9.20
2022-11-05T02:30:47.699Z,9.20
2022-11-05T02:31:49.060Z,9.10
2022-11-05T02:32:53.536Z,9.10
2022-11-05T02:34:00.485Z,9.10
2022-11-05T02:35:15.093Z,9.10
2022-11-05T02:36:39.017Z,9.10
2022-11-05T02:37:51.545Z,9.10
2022-11-05T02:39:10.488Z,9.10
2022-11-05T02:40:34.070Z,9.10
2022-11-05T02:41:54.784Z,9.20
2022-11-05T02:43:07.643Z,9.20
2022-11-05T02:44:26.537Z,9.10
2022-11-05T02:45:36.572Z,9.10
2022-11-05T02:46:43.793Z,9.10
2022-11-05T02:47:51.352Z,9.00
2022-11-05T02:49:33.957Z,8.90
2022-11-05T02:50:57.172Z,8.90
2022-11-05T02:52:05.300Z,8.90
2022-11-05T02:53:28.874Z,8.90
2022-11-05T02:54:42.583Z,8.90
2022-11-05T02:56:00.397Z,8.90
2022-11-05T02:57:03.341Z,8.90
2022-11-05T02:58:06.062Z,9.00
2022-11-05T02:59:07.441Z,9.00
2022-11-05T03:00:35.127Z,9.00
2022-11-05T03:01:37.732Z,9.00
2022-11-05T03:02:39.345Z,9.10
2022-11-05T03:03:45.757Z,9.10
2022-11-05T03:04:47.286Z,9.10
2022-11-05T03:06:13.306Z,9.00
2022-11-05T03:07:46.059Z,9.00
2022-11-05T03:08:50.291Z,9.10
2022-11-05T03:10:16.891Z,9.10
2022-11-05T03:11:21.537Z,9.10
2022-11-05T03:12:59.745Z,9.20
2022-11-05T03:14:22.339Z,9.10
2022-11-05T03:15:38.448Z,9.10
2022-11-05T03:16:43.046Z,9.20
2022-11-05T03:18:10.007Z,9.20
2022-11-05T03:19:19.475Z,9.10
2022-11-05T03:20:23.932Z,9.20
2022-11-05T03:21:41.800Z,9.20
2022-11-05T03:23:05.911Z,9.20
2022-11-05T03:24:45.224Z,9.10
2022-11-05T03:25:57.029Z,9.10
2022-11-05T03:27:13.338Z,9.00
2022-11-05T03:28:16.951Z,9.00
2022-11-05T03:29:24.100Z,9.00
2022-11-05T03:30:26.349Z,9.00
2022-11-05T03:31:29.769Z,9.00
2022-11-05T03:32:35.799Z,9.00
2022-11-05T03:33:39.492Z,9.10
2022-11-05T03:34:48.076Z,9.00
2022-11-05T03:35:56.433Z,9.00
2022-11-05T03:36:59.544Z,9.10
2022-11-05T03:38:06.976Z,9.10
2022-11-05T03:39:15.776Z,9.00
2022-11-05T03:40:21.507Z,9.00
2022-11-05T03:41:24.553Z,9.00
2022-11-05T03:42:29.951Z,9.00
2022-11-05T03:43:36.851Z,9.00
2022-11-05T03:44:45.444Z,9.00
2022-11-05T03:45:59.050Z,8.90
2022-11-05T03:47:07.406Z,9.00
2022-11-05T03:48:12.527Z,9.00
2022-11-05T03:49:31.020Z,9.10
2022-11-05T03:50:55.867Z,9.00
2022-11-05T03:52:01.544Z,9.00
2022-11-05T03:53:17.008Z,8.90
2022-11-05T03:54:19.281Z,8.90
2022-11-05T03:55:26.312Z,9.00
2022-11-05T03:56:29.643Z,8.90
2022-11-05T03:57:39.545Z,8.90
2022-11-05T03:58:44.717Z,9.00
2022-11-05T03:59:49.881Z,9.10
2022-11-05T04:00:51.602Z,9.10
2022-11-05T04:01:54.915Z,9.00
2022-11-05T04:02:56.384Z,9.00
2022-11-05T04:03:58.075Z,9.00
2022-11-05T04:04:59.532Z,8.90
2022-11-05T04:06:19.791Z,8.90
2022-11-05T04:07:40.116Z,8.90
2022-11-05T04:09:00.436Z,8.90
2022-11-05T04:10:20.506Z,9.00
2022-11-05T04:11:40.726Z,9.10
2022-11-05T04:13:01.386Z,9.00
2022-11-05T04:14:02.859Z,9.00
2022-11-05T04:15:04.443Z,9.00
2022-11-05T04:16:24.467Z,8.90
2022-11-05T04:17:26.262Z,9.00
2022-11-05T04:18:28.214Z,8.90
2022-11-05T04:19:48.360Z,8.90
2022-11-05T04:21:08.529Z,8.90
2022-11-05T04:22:28.745Z,8.90
2022-11-05T04:23:49.176Z,8.90
2022-11-05T04:24:50.571Z,8.90
2022-11-05T04:25:52.207Z,8.90
2022-11-05T04:26:53.797Z,8.90
2022-11-05T04:28:00.490Z,8.90
2022-11-05T04:29:20.549Z,8.90
2022-11-05T04:30:22.749Z,8.90
2022-11-05T04:31:24.373Z,8.90
2022-11-05T04:32:25.850Z,8.90
2022-11-05T04:33:27.433Z,8.90
2022-11-05T04:34:29.067Z,8.90
2022-11-05T04:35:34.429Z,8.90
2022-11-05T04:36:36.062Z,8.90
2022-11-05T04:37:37.698Z,8.90
2022-11-05T04:38:39.252Z,8.90
2022-11-05T04:39:40.755Z,8.90
2022-11-05T04:40:43.323Z,8.90
2022-11-05T04:41:47.864Z,8.90
2022-11-05T04:42:49.302Z,8.90
2022-11-05T04:43:50.724Z,8.90
2022-11-05T04:44:52.348Z,8.90
2022-11-05T04:45:54.131Z,8.90
2022-11-05T04:46:55.477Z,9.00
2022-11-05T04:47:56.998Z,9.10
2022-11-05T04:48:58.621Z,9.00
2022-11-05T04:50:00.227Z,9.00
2022-11-05T04:51:01.901Z,9.00
2022-11-05T04:52:03.363Z,9.00
2022-11-05T04:53:04.790Z,9.00
2022-11-05T04:54:06.235Z,9.00
2022-11-05T04:55:08.469Z,9.00
2022-11-05T04:56:17.646Z,9.00
2022-11-05T04:57:19.030Z,9.10
2022-11-05T04:58:21.538Z,9.10
2022-11-05T04:59:22.943Z,9.10
2022-11-05T05:00:25.203Z,9.00
2022-11-05T05:01:26.794Z,9.00
2022-11-05T05:02:28.728Z,8.90
2022-11-05T05:03:30.180Z,8.90
2022-11-05T05:04:31.610Z,8.90
2022-11-05T05:05:33.042Z,8.90
2022-11-05T05:06:34.427Z,8.90
2022-11-05T05:07:36.230Z,8.90
2022-11-05T05:08:37.705Z,8.90
2022-11-05T05:09:39.120Z,8.90
2022-11-05T05:10:40.508Z,9.10
2022-11-05T05:11:41.977Z,9.00
2022-11-05T05:12:43.407Z,9.00
2022-11-05T05:13:44.831Z,8.90
2022-11-05T05:14:48.276Z,8.90
2022-11-05T05:15:49.687Z,8.90
2022-11-05T05:16:51.164Z,9.00
2022-11-05T05:17:53.276Z,8.90
2022-11-05T05:18:54.967Z,9.00
2022-11-05T05:20:25.845Z,8.90
2022-11-05T05:21:39.393Z,8.90
2022-11-05T05:22:40.877Z,9.00
2022-11-05T05:23:42.332Z,9.00
2022-11-05T05:24:47.357Z,8.90
2022-11-05T05:25:51.420Z,8.90
2022-11-05T05:26:53.072Z,8.90
2022-11-05T05:27:58.179Z,8.90
2022-11-05T05:28:59.539Z,8.90
2022-11-05T05:30:01.066Z,8.90
2022-11-05T05:31:02.877Z,8.90
2022-11-05T05:32:05.328Z,8.90
2022-11-05T05:33:06.696Z,8.90
2022-11-05T05:34:10.697Z,8.90
2022-11-05T05:35:12.115Z,8.80
2022-11-05T05:36:13.583Z,8.90
2022-11-05T05:37:15.170Z,8.90
2022-11-05T05:38:16.563Z,8.80
2022-11-05T05:39:17.964Z,8.80
2022-11-05T05:40:19.360Z,8.80
2022-11-05T05:41:21.299Z,8.80
2022-11-05T05:42:22.957Z,8.80
2022-11-05T05:43:24.377Z,8.80
2022-11-05T05:44:25.743Z,8.80
2022-11-05T05:45:27.238Z,8.80
2022-11-05T05:46:28.620Z,8.80
2022-11-05T05:47:30.012Z,8.90
2022-11-05T05:48:32.036Z,8.90
2022-11-05T05:49:33.459Z,8.90
2022-11-05T05:50:35.144Z,8.90
2022-11-05T05:51:42.065Z,8.90
2022-11-05T05:52:43.468Z,8.90
2022-11-05T05:53:45.181Z,8.90
2022-11-05T05:54:46.563Z,8.90
2022-11-05T05:55:47.934Z,8.90
2022-11-05T05:56:49.464Z,8.90
2022-11-05T05:57:50.970Z,8.90
2022-11-05T05:58:52.419Z,8.90
2022-11-05T05:59:53.793Z,9.00
2022-11-05T06:00:55.812Z,9.00
2022-11-05T06:01:57.683Z,9.00
2022-11-05T06:02:59.197Z,8.90
2022-11-05T06:04:01.357Z,8.90
2022-11-05T06:05:02.725Z,8.90
2022-11-05T06:06:07.263Z,8.90
2022-11-05T06:07:08.825Z,9.00
2022-11-05T06:08:10.214Z,8.90
2022-11-05T06:09:11.604Z,8.90
2022-11-05T06:10:13.087Z,8.90
2022-11-05T06:11:15.124Z,9.00
2022-11-05T06:12:16.519Z,9.10
2022-11-05T06:13:17.888Z,9.10
2022-11-05T06:14:19.669Z,9.10
2022-11-05T06:15:21.040Z,9.20
2022-11-05T06:16:22.775Z,9.10
2022-11-05T06:17:24.679Z,9.10
2022-11-05T06:18:26.577Z,9.10
2022-11-05T06:19:29.002Z,9.10
2022-11-05T06:20:30.572Z,9.10
2022-11-05T06:21:32.028Z,9.10
2022-11-05T06:22:33.704Z,9.10
2022-11-05T06:23:37.129Z,9.00
2022-11-05T06:24:38.865Z,9.10
2022-11-05T06:25:41.487Z,9.10
2022-11-05T06:26:43.388Z,9.10
2022-11-05T06:27:44.795Z,9.10
2022-11-05T06:28:46.545Z,9.10
2022-11-05T06:29:47.951Z,9.00
2022-11-05T06:30:52.202Z,9.00
2022-11-05T06:31:53.946Z,9.00
2022-11-05T06:32:55.319Z,9.00
2022-11-05T06:33:56.726Z,9.00
2022-11-05T06:34:58.454Z,9.00
2022-11-05T06:36:01.781Z,9.00
2022-11-05T06:37:03.215Z,9.00
2022-11-05T06:38:04.956Z,9.00
2022-11-05T06:39:11.467Z,9.00
2022-11-05T06:40:12.939Z,9.00
2022-11-05T06:41:14.757Z,9.10
2022-11-05T06:42:18.973Z,9.10
2022-11-05T06:43:20.921Z,9.10
2022-11-05T06:44:23.123Z,9.10
2022-11-05T06:45:24.605Z,9.10
2022-11-05T06:46:25.993Z,9.10
2022-11-05T06:47:27.749Z,9.10
2022-11-05T06:48:29.643Z,9.10
2022-11-05T06:49:31.336Z,9.10
2022-11-05T06:50:32.798Z,9.10
2022-11-05T06:51:34.508Z,9.10
2022-11-05T06:52:40.776Z,9.10
2022-11-05T06:53:42.608Z,9.10
2022-11-05T06:54:44.329Z,9.10
2022-11-05T06:55:47.829Z,9.10
2022-11-05T06:56:49.232Z,9.10
2022-11-05T06:57:50.980Z,9.20
2022-11-05T06:58:52.349Z,9.20
2022-11-05T06:59:59.634Z,9.20
2022-11-05T07:01:10.806Z,9.10
2022-11-05T07:02:13.747Z,9.20
2022-11-05T07:03:15.591Z,9.20
2022-11-05T07:04:17.209Z,9.10
2022-11-05T07:05:18.779Z,9.20
2022-11-05T07:06:20.302Z,9.20
2022-11-05T07:07:21.687Z,9.30
2022-11-05T07:08:24.043Z,9.30
2022-11-05T07:09:25.603Z,9.20
2022-11-05T07:10:27.061Z,9.20
2022-11-05T07:11:28.663Z,9.20
2022-11-05T07:12:30.163Z,9.20
2022-11-05T07:13:32.170Z,9.20
2022-11-05T07:14:33.746Z,9.20
2022-11-05T07:15:35.794Z,9.20
2022-11-05T07:16:37.814Z,9.20
2022-11-05T07:17:40.233Z,9.20
2022-11-05T07:18:41.667Z,9.20
2022-11-05T07:19:43.491Z,9.30
2022-11-05T07:20:44.901Z,9.30
2022-11-05T07:21:47.467Z,9.30
2022-11-05T07:22:48.904Z,9.20
2022-11-05T07:23:50.373Z,9.20
2022-11-05T07:24:51.797Z,9.30
2022-11-05T07:25:53.448Z,9.30
2022-11-05T07:26:54.833Z,9.30
2022-11-05T07:27:56.325Z,9.30
2022-11-05T07:28:57.817Z,9.30
2022-11-05T07:29:59.689Z,9.30
2022-11-05T07:31:01.146Z,9.40
2022-11-05T07:32:02.596Z,9.30
2022-11-05T07:33:04.356Z,9.40
2022-11-05T07:34:05.824Z,9.50
2022-11-05T07:35:09.299Z,9.40
2022-11-05T07:36:10.910Z,9.40
2022-11-05T07:37:12.378Z,9.40
2022-11-05T07:38:13.827Z,9.50
2022-11-05T07:39:15.348Z,9.40
2022-11-05T07:40:18.618Z,9.40
2022-11-05T07:41:20.063Z,9.40
2022-11-05T07:42:21.434Z,9.40
2022-11-05T07:43:22.799Z,9.40
2022-11-05T07:44:24.459Z,9.40
2022-11-05T07:45:28.610Z,9.40
2022-11-05T07:46:30.917Z,9.40
2022-11-05T07:47:32.564Z,9.40
2022-11-05T07:48:34.024Z,9.50
2022-11-05T07:49:35.488Z,9.50
2022-11-05T07:50:37.727Z,9.50
2022-11-05T07:51:39.176Z,9.50
2022-11-05T07:52:40.639Z,9.50
2022-11-05T07:53:45.452Z,9.50
2022-11-05T07:54:47.316Z,9.50
2022-11-05T07:55:48.765Z,9.60
2022-11-05T07:56:50.160Z,9.60
2022-11-05T07:57:51.643Z,9.60
2022-11-05T07:58:53.090Z,9.60
2022-11-05T07:59:54.664Z,9.60
2022-11-05T08:00:57.342Z,9.70
2022-11-05T08:01:59.112Z,9.70
2022-11-05T08:03:18.210Z,9.70
2022-11-05T08:04:20.914Z,9.70
2022-11-05T08:05:22.292Z,9.80
2022-11-05T08:06:23.753Z,9.70
2022-11-05T08:07:25.386Z,9.80
2022-11-05T08:08:26.949Z,9.80
2022-11-05T08:09:28.445Z,9.80
2022-11-05T08:10:30.333Z,9.80
2022-11-05T08:11:31.756Z,9.80
2022-11-05T08:12:33.948Z,9.80
2022-11-05T08:13:36.402Z,9.80
2022-11-05T08:14:37.836Z,9.80
2022-11-05T08:15:39.439Z,9.80
2022-11-05T08:16:40.900Z,9.80
2022-11-05T08:17:42.336Z,9.80
2022-11-05T08:18:44.611Z,9.80
2022-11-05T08:19:46.054Z,9.90
2022-11-05T08:20:48.652Z,9.90
2022-11-05T08:21:50.322Z,9.90
2022-11-05T08:22:51.781Z,10.00
2022-11-05T08:23:53.175Z,10.00
2022-11-05T08:24:54.583Z,10.00
2022-11-05T08:25:56.957Z,10.00
2022-11-05T08:26:58.432Z,10.00
2022-11-05T08:28:04.939Z,10.00
2022-11-05T08:29:06.647Z,10.10
2022-11-05T08:30:09.403Z,10.20
2022-11-05T08:31:10.844Z,10.20
2022-11-05T08:32:12.492Z,10.20
2022-11-05T08:33:14.719Z,10.20
2022-11-05T08:34:16.458Z,10.20
2022-11-05T08:35:18.069Z,10.30
2022-11-05T08:36:19.708Z,10.20
2022-11-05T08:37:21.049Z,10.30
2022-11-05T08:38:22.611Z,10.30
2022-11-05T08:39:24.098Z,10.40
2022-11-05T08:40:26.663Z,10.40
2022-11-05T08:41:28.222Z,10.50
2022-11-05T08:42:29.568Z,10.50
2022-11-05T08:43:31.012Z,10.60
2022-11-05T08:44:32.582Z,10.60
2022-11-05T08:45:38.228Z,10.70
2022-11-05T08:46:41.686Z,10.70
2022-11-05T08:47:43.343Z,10.80
2022-11-05T08:48:44.868Z,10.80
2022-11-05T08:49:46.349Z,10.80
2022-11-05T08:50:48.869Z,10.70
2022-11-05T08:51:50.603Z,10.80
2022-11-05T08:52:51.969Z,10.70
2022-11-05T08:53:53.487Z,10.80
2022-11-05T08:54:54.861Z,10.80
2022-11-05T08:55:59.757Z,10.80
2022-11-05T08:57:01.207Z,10.70
2022-11-05T08:58:10.560Z,10.60
2022-11-05T08:59:11.976Z,10.70
2022-11-05T09:00:15.244Z,10.70
2022-11-05T09:01:16.675Z,10.60
2022-11-05T09:02:18.596Z,10.60
2022-11-05T09:03:20.236Z,10.50
2022-11-05T09:04:21.710Z,10.50
2022-11-05T09:05:23.075Z,10.50
2022-11-05T09:06:24.475Z,10.50
2022-11-05T09:07:25.888Z,10.50
2022-11-05T09:08:27.305Z,10.60
2022-11-05T09:09:28.800Z,10.60
2022-11-05T09:10:30.409Z,10.50
2022-11-05T09:11:49.906Z,10.60
2022-11-05T09:12:53.741Z,10.50
2022-11-05T09:13:55.197Z,10.50
2022-11-05T09:14:56.766Z,10.50
2022-11-05T09:15:59.382Z,10.40
2022-11-05T09:17:00.832Z,10.40
2022-11-05T09:18:05.642Z,10.40
2022-11-05T09:19:07.108Z,10.40
2022-11-05T09:20:11.112Z,10.40
2022-11-05T09:21:12.872Z,10.40
2022-11-05T09:22:14.802Z,10.40
2022-11-05T09:23:16.893Z,10.40
2022-11-05T09:24:18.367Z,10.30
2022-11-05T09:25:20.070Z,10.30
2022-11-05T09:26:22.203Z,10.30
2022-11-05T09:27:23.638Z,10.20
2022-11-05T09:28:25.571Z,10.30
2022-11-05T09:29:27.632Z,10.30
2022-11-05T09:30:28.995Z,10.30
2022-11-05T09:31:30.376Z,10.30
2022-11-05T09:32:33.198Z,10.40
2022-11-05T09:33:36.551Z,10.40
2022-11-05T09:34:38.096Z,10.40
2022-11-05T09:35:41.257Z,10.40
2022-11-05T09:36:42.994Z,10.40
2022-11-05T09:37:45.967Z,10.50
2022-11-05T09:38:47.422Z,10.50
2022-11-05T09:39:48.880Z,10.50
2022-11-05T09:41:23.496Z,10.60
2022-11-05T09:42:42.845Z,10.60
2022-11-05T09:43:50.300Z,10.60
2022-11-05T09:44:56.009Z,10.60
2022-11-05T09:46:00.760Z,10.60
2022-11-05T09:47:06.715Z,10.60
2022-11-05T09:48:15.756Z,10.60
2022-11-05T09:49:29.333Z,10.60
2022-11-05T09:50:34.719Z,10.50
2022-11-05T09:51:37.150Z,10.50
2022-11-05T09:52:38.675Z,10.50
2022-11-05T09:53:41.677Z,10.50
2022-11-05T09:54:43.146Z,10.50
2022-11-05T09:56:05.917Z,10.50
2022-11-05T09:57:14.570Z,10.50
2022-11-05T09:58:39.085Z,10.50
2022-11-05T09:59:48.654Z,10.50
2022-11-05T10:00:52.734Z,10.40
2022-11-05T10:02:17.717Z,10.40
2022-11-05T10:03:25.561Z,10.40
2022-11-05T10:04:28.614Z,10.30
2022-11-05T10:05:32.473Z,10.20
2022-11-05T10:06:34.470Z,10.20
2022-11-05T10:07:47.121Z,10.10
2022-11-05T10:09:12.184Z,10.10
2022-11-05T10:10:41.335Z,10.10
2022-11-05T10:11:51.561Z,10.10
2022-11-05T10:13:33.340Z,10.20
2022-11-05T10:14:41.009Z,10.20
2022-11-05T10:16:10.978Z,10.20
2022-11-05T10:17:22.380Z,10.30
2022-11-05T10:18:47.320Z,10.30
2022-11-05T10:19:58.404Z,10.40
2022-11-05T10:21:00.242Z,10.40
2022-11-05T10:22:10.908Z,10.50
2022-11-05T10:23:18.167Z,10.60
2022-11-05T10:24:20.827Z,10.60
2022-11-05T10:25:24.529Z,10.70
2022-11-05T10:26:27.390Z,10.70
2022-11-05T10:27:36.540Z,10.70
2022-11-05T10:28:39.309Z,10.80
2022-11-05T10:29:43.306Z,10.90
2022-11-05T10:30:51.236Z,11.00
2022-11-05T10:31:55.920Z,11.00
2022-11-05T10:33:03.215Z,11.00
2022-11-05T10:34:07.645Z,11.10
2022-11-05T10:35:18.378Z,11.20
2022-11-05T10:36:34.352Z,11.30
2022-11-05T10:37:40.695Z,11.30
2022-11-05T10:38:42.472Z,11.40
2022-11-05T10:39:43.853Z,11.40
2022-11-05T10:41:07.142Z,11.50
2022-11-05T10:42:35.955Z,11.60
2022-11-05T10:43:45.049Z,11.60
2022-11-05T10:44:52.288Z,11.60
2022-11-05T10:46:23.294Z,11.60
2022-11-05T10:47:43.310Z,11.60
2022-11-05T10:48:48.960Z,11.70
2022-11-05T10:50:02.099Z,11.70
2022-11-05T10:51:03.751Z,11.80
2022-11-05T10:52:19.883Z,11.80
2022-11-05T10:53:27.471Z,11.80
2022-11-05T10:54:34.092Z,11.80
2022-11-05T10:55:44.775Z,11.80
2022-11-05T10:56:46.625Z,11.80
2022-11-05T10:57:49.696Z,11.90
2022-11-05T10:58:56.777Z,11.90
2022-11-05T11:00:20.017Z,11.90
2022-11-05T11:01:25.138Z,11.80
2022-11-05T11:02:28.168Z,11.80
2022-11-05T11:03:49.269Z,11.80
2022-11-05T11:04:55.361Z,11.80
2022-11-05T11:06:05.180Z,11.70
2022-11-05T11:07:21.892Z,11.60
2022-11-05T11:08:24.867Z,11.60
2022-11-05T11:09:30.458Z,11.60
2022-11-05T11:10:39.079Z,11.60
2022-11-05T11:11:42.635Z,11.60
2022-11-05T11:12:44.478Z,11.70
2022-11-05T11:13:58.239Z,11.70
2022-11-05T11:15:02.409Z,11.60
2022-11-05T11:16:16.592Z,11.60
2022-11-05T11:17:31.112Z,11.60
2022-11-05T11:18:40.453Z,11.60
2022-11-05T11:19:42.264Z,11.60
2022-11-05T11:20:46.407Z,11.60
2022-11-05T11:22:07.738Z,11.60
2022-11-05T11:23:14.856Z,11.50
2022-11-05T11:24:28.554Z,11.60
2022-11-05T11:25:45.853Z,11.60
2022-11-05T11:26:47.391Z,11.60
2022-11-05T11:27:49.084Z,11.60
2022-11-05T11:29:13.116Z,11.60
2022-11-05T11:30:19.684Z,11.50
2022-11-05T11:31:30.506Z,11.50
2022-11-05T11:32:37.735Z,11.50
2022-11-05T11:33:41.112Z,11.40
2022-11-05T11:34:45.047Z,11.40
2022-11-05T11:35:47.093Z,11.30
2022-11-05T11:36:53.551Z,11.30
2022-11-05T11:37:57.289Z,11.30
2022-11-05T11:39:04.447Z,11.30
2022-11-05T11:40:23.063Z,11.30
2022-11-05T11:41:32.749Z,11.20
2022-11-05T11:42:39.642Z,11.10
2022-11-05T11:43:42.448Z,11.00
2022-11-05T11:44:46.583Z,10.90
2022-11-05T11:45:51.841Z,10.90
2022-11-05T11:47:03.219Z,10.90
2022-11-05T11:48:06.890Z,10.90
2022-11-05T11:49:42.503Z,11.00
2022-11-05T11:50:46.281Z,11.00
2022-11-05T11:51:50.144Z,11.10
2022-11-05T11:52:52.553Z,11.10
2022-11-05T11:53:58.426Z,11.20
2022-11-05T11:55:11.824Z,11.20
2022-11-05T11:56:21.343Z,11.20
2022-11-05T11:57:24.995Z,11.30
2022-11-05T11:58:37.942Z,11.30
2022-11-05T12:00:07.115Z,11.40
2022-11-05T12:01:27.016Z,11.40
2022-11-05T12:02:38.595Z,11.50
2022-11-05T12:04:16.464Z,11.60
2022-11-05T12:05:26.555Z,11.70
2022-11-05T12:06:44.211Z,11.80
2022-11-05T12:07:55.073Z,11.90
2022-11-05T12:09:25.044Z,11.90
2022-11-05T12:10:44.915Z,11.90
2022-11-05T12:12:08.974Z,12.00
2022-11-05T12:13:19.467Z,12.10
2022-11-05T12:14:54.540Z,12.20
2022-11-05T12:16:05.057Z,12.20
2022-11-05T12:17:30.363Z,12.30
2022-11-05T12:18:46.955Z,12.40
2022-11-05T12:20:10.609Z,12.50
2022-11-05T12:21:51.487Z,12.50
2022-11-05T12:22:54.323Z,12.60
2022-11-05T12:24:07.601Z,12.70
2022-11-05T12:25:30.673Z,12.60
2022-11-05T12:27:26.389Z,12.50
2022-11-05T12:29:17.893Z,12.50
2022-11-05T12:30:20.566Z,12.60
2022-11-05T12:31:40.327Z,12.70
2022-11-05T12:33:16.250Z,12.70
2022-11-05T12:34:45.038Z,12.80
2022-11-05T12:36:27.793Z,12.80
2022-11-05T12:37:51.073Z,12.80
2022-11-05T12:39:04.752Z,12.90
2022-11-05T12:40:09.416Z,12.90
2022-11-05T12:41:30.206Z,12.90
2022-11-05T12:42:43.222Z,12.80
2022-11-05T12:44:10.042Z,12.70
2022-11-05T12:45:43.304Z,12.70
2022-11-05T12:47:07.207Z,12.70
2022-11-05T12:48:35.800Z,12.70
2022-11-05T12:49:54.735Z,12.70
2022-11-05T12:51:26.851Z,12.70
2022-11-05T12:52:55.267Z,12.60
2022-11-05T12:54:10.931Z,12.60
2022-11-05T12:55:18.959Z,12.60
2022-11-05T12:56:46.911Z,12.70
2022-11-05T12:57:53.225Z,12.70
2022-11-05T12:59:10.651Z,12.70
2022-11-05T13:00:20.693Z,12.70
2022-11-05T13:01:28.673Z,12.70
2022-11-05T13:03:13.614Z,12.70
2022-11-05T13:04:44.013Z,12.70
2022-11-05T13:06:01.475Z,12.70
2022-11-05T13:07:10.126Z,12.70
2022-11-05T13:08:20.380Z,12.70
2022-11-05T13:09:32.346Z,12.80
2022-11-05T13:10:55.025Z,12.70
2022-11-05T13:12:08.123Z,12.80
2022-11-05T13:13:22.366Z,12.90
2022-11-05T13:14:45.719Z,13.00
2022-11-05T13:15:55.232Z,13.10
2022-11-05T13:17:10.846Z,13.10
2022-11-05T13:18:18.194Z,13.20
2022-11-05T13:19:59.191Z,13.30
2022-11-05T13:21:04.573Z,13.30
2022-11-05T13:22:21.215Z,13.40
2022-11-05T13:23:39.831Z,13.50
2022-11-05T13:24:50.893Z,13.60
2022-11-05T13:25:57.885Z,13.70
2022-11-05T13:27:05.323Z,13.90
2022-11-05T13:28:28.319Z,14.10
2022-11-05T13:29:39.755Z,14.30
2022-11-05T13:30:46.484Z,14.50
2022-11-05T13:31:57.896Z,14.60
2022-11-05T13:33:07.759Z,14.50
2022-11-05T13:34:13.179Z,14.30
2022-11-05T13:35:19.889Z,14.10
2022-11-05T13:37:09.682Z,13.90
2022-11-05T13:38:41.929Z,13.80
2022-11-05T13:39:48.624Z,13.50
2022-11-05T13:40:58.991Z,13.30
2022-11-05T13:42:17.047Z,13.10
2022-11-05T13:43:31.019Z,13.00
2022-11-05T13:45:07.712Z,12.90
2022-11-05T13:46:30.896Z,12.80
2022-11-05T13:47:47.291Z,12.60
2022-11-05T13:49:02.274Z,12.50
2022-11-05T13:50:06.790Z,12.40
2022-11-05T13:51:38.609Z,12.40
2022-11-05T13:53:10.608Z,12.30
2022-11-05T13:54:35.410Z,12.20
2022-11-05T13:55:57.691Z,12.10
2022-11-05T13:57:17.618Z,12.00
2022-11-05T13:58:21.736Z,12.00
2022-11-05T13:59:41.060Z,11.90
2022-11-05T14:01:05.430Z,11.90
2022-11-05T14:02:15.473Z,11.80
2022-11-05T14:03:21.572Z,11.80
2022-11-05T14:04:41.200Z,11.90
2022-11-05T14:05:43.527Z,11.90
2022-11-05T14:06:45.022Z,11.80
2022-11-05T14:07:47.610Z,11.80
2022-11-05T14:08:49.246Z,11.70
2022-11-05T14:10:20.553Z,11.60
2022-11-05T14:11:33.025Z,11.60
2022-11-05T14:12:39.975Z,11.50
2022-11-05T14:13:43.676Z,11.50
2022-11-05T14:14:58.424Z,11.50
2022-11-05T14:16:17.442Z,11.40
2022-11-05T14:17:52.900Z,11.50
2022-11-05T14:19:19.955Z,11.40
2022-11-05T14:20:30.290Z,11.30
2022-11-05T14:21:46.494Z,11.30
2022-11-05T14:22:47.987Z,11.30
2022-11-05T14:23:52.417Z,11.20
2022-11-05T14:24:53.807Z,11.20
2022-11-05T14:26:12.358Z,11.20
2022-11-05T14:27:13.682Z,11.30
2022-11-05T14:28:33.862Z,11.20
2022-11-05T14:29:45.356Z,11.30
2022-11-05T14:30:47.891Z,11.40
2022-11-05T14:33:29.224Z,11.40
2022-11-05T14:34:42.768Z,11.30
2022-11-05T14:35:44.418Z,11.30
2022-11-05T14:37:27.472Z,11.30
2022-11-05T14:38:28.996Z,11.20
2022-11-05T14:39:32.194Z,11.20
2022-11-05T14:40:38.810Z,11.20
2022-11-05T14:42:03.586Z,11.20
2022-11-05T14:43:21.768Z,11.20
2022-11-05T14:44:24.940Z,11.20
2022-11-05T14:45:51.980Z,11.20
2022-11-05T14:46:57.550Z,11.20
2022-11-05T14:48:01.628Z,11.20
2022-11-05T14:49:09.363Z,11.30
2022-11-05T14:50:27.138Z,11.30
2022-11-05T14:51:39.634Z,11.30
2022-11-05T14:52:51.836Z,11.30
2022-11-05T14:54:04.877Z,11.30
2022-11-05T14:55:22.714Z,11.30
2022-11-05T14:56:24.207Z,11.30
2022-11-05T14:57:43.691Z,11.20